createdAt,value
2023-02-03T00:02:46.177Z,101320.22
2023-02-03T00:05:48.540Z,101315.94
2023-02-03T00:08:54.840Z,101314.28
2023-02-03T00:11:56.285Z,101311.59
2023-02-03T00:14:57.711Z,101311.88
2023-02-03T00:17:59.096Z,101325.19
2023-02-03T00:21:00.506Z,101315.13
2023-02-03T00:24:02.034Z,101309.16
2023-02-03T00:27:03.549Z,101312.44
2023-02-03T00:30:05.564Z,101321.66
2023-02-03T00:33:07.037Z,101319.22
2023-02-03T00:36:09.232Z,101324.44
2023-02-03T00:39:10.722Z,101316.44
2023-02-03T00:42:12.221Z,101330.56
2023-02-03T00:45:13.708Z,101326.19
2023-02-03T00:48:15.190Z,101326.63
2023-02-03T00:51:18.870Z,101320.06
2023-02-03T00:54:20.412Z,101322.59
2023-02-03T00:57:21.830Z,101330.22
2023-02-03T01:00:24.155Z,101324.50
2023-02-03T01:03:25.989Z,101309.50
2023-02-03T01:06:28.250Z,101305.63
2023-02-03T01:09:34.274Z,101307.91
2023-02-03T01:12:35.702Z,101316.63
2023-02-03T01:15:37.219Z,101319.03
2023-02-03T01:18:39.396Z,101329.44
2023-02-03T01:21:40.815Z,101329.88
2023-02-03T01:24:42.500Z,101328.03
2023-02-03T01:27:44.246Z,101330.06
2023-02-03T01:30:45.796Z,101332.66
2023-02-03T01:33:48.668Z,101319.72
2023-02-03T01:36:50.120Z,101321.16
2023-02-03T01:39:51.514Z,101316.28
2023-02-03T01:42:52.928Z,101310.84
2023-02-03T01:45:54.382Z,101294.16
2023-02-03T01:49:15.247Z,101282.47
2023-02-03T01:52:17.482Z,101289.63
2023-02-03T01:55:27.861Z,101297.16
2023-02-03T01:58:33.921Z,101304.38
2023-02-03T02:01:37.167Z,101310.66
2023-02-03T02:04:55.596Z,101314.78
2023-02-03T02:08:00.052Z,101322.84
2023-02-03T02:11:02.197Z,101305.22
2023-02-03T02:14:03.840Z,101297.25
2023-02-03T02:17:18.661Z,101290.09
2023-02-03T02:20:49.321Z,101292.91
2023-02-03T02:24:17.338Z,101272.84
2023-02-03T02:28:07.990Z,101269.41
2023-02-03T02:31:15.318Z,101264.81
2023-02-03T02:34:28.894Z,101246.19
2023-02-03T02:37:36.449Z,101216.81
2023-02-03T02:40:46.394Z,101200.63
2023-02-03T02:44:03.989Z,101196.38
2023-02-03T02:47:14.518Z,101193.84
2023-02-03T02:50:26.385Z,101193.13
2023-02-03T02:53:33.988Z,101193.13
2023-02-03T02:56:39.844Z,101182.84
2023-02-03T02:59:41.320Z,101188.94
2023-02-03T03:02:42.970Z,101191.63
2023-02-03T03:05:50.852Z,101184.34
2023-02-03T03:09:00.877Z,101175.59
2023-02-03T03:12:20.437Z,101185.25
2023-02-03T03:15:26.921Z,101175.31
2023-02-03T03:18:33.510Z,101166.09
2023-02-03T03:21:41.152Z,101178.59
2023-02-03T03:24:52.499Z,101185.84
2023-02-03T03:28:01.904Z,101195.19
2023-02-03T03:31:04.151Z,101194.94
2023-02-03T03:34:05.789Z,101209.56
2023-02-03T03:37:17.611Z,101201.66
2023-02-03T03:40:25.716Z,101193.44
2023-02-03T03:43:32.702Z,101193.31
2023-02-03T03:46:43.490Z,101196.56
2023-02-03T03:49:47.009Z,101203.38
2023-02-03T03:52:50.623Z,101207.41
2023-02-03T03:55:54.080Z,101240.63
2023-02-03T03:58:58.459Z,101233.22
2023-02-03T04:02:04.497Z,101236.78
2023-02-03T04:05:07.029Z,101258.06
2023-02-03T04:08:08.594Z,101276.38
2023-02-03T04:11:10.081Z,101263.47
2023-02-03T04:14:11.590Z,101276.34
2023-02-03T04:17:13.076Z,101273.69
2023-02-03T04:20:15.993Z,101264.19
2023-02-03T04:23:17.464Z,101271.81
2023-02-03T04:26:19.113Z,101272.25
2023-02-03T04:29:20.509Z,101271.56
2023-02-03T04:32:21.947Z,101281.22
2023-02-03T04:35:23.469Z,101276.22
2023-02-03T04:38:25.070Z,101276.19
2023-02-03T04:41:26.550Z,101278.16
2023-02-03T04:44:27.948Z,101280.19
2023-02-03T04:47:29.516Z,101279.47
2023-02-03T04:50:31.714Z,101279.78
2023-02-03T04:53:33.567Z,101259.28
2023-02-03T04:56:35.087Z,101248.97
2023-02-03T04:59:36.500Z,101246.09
2023-02-03T05:02:37.914Z,101240.56
2023-02-03T05:05:39.473Z,101241.63
2023-02-03T05:08:40.903Z,101248.03
2023-02-03T05:11:42.354Z,101248.06
2023-02-03T05:14:43.910Z,101246.03
2023-02-03T05:17:45.327Z,101250.25
2023-02-03T05:20:46.726Z,101240.69
2023-02-03T05:23:48.232Z,101241.31
2023-02-03T05:26:49.749Z,101245.78
2023-02-03T05:29:51.197Z,101244.81
2023-02-03T05:32:52.616Z,101248.13
2023-02-03T05:35:54.266Z,101248.16
2023-02-03T05:38:55.698Z,101257.47
2023-02-03T05:41:58.483Z,101259.56
2023-02-03T05:45:00.042Z,101250.94
2023-02-03T05:48:04.481Z,101267.13
2023-02-03T05:51:06.011Z,101254.38
2023-02-03T05:54:08.635Z,101247.16
2023-02-03T05:57:10.051Z,101251.31
2023-02-03T06:00:12.154Z,101277.63
2023-02-03T06:03:13.554Z,101283.03
2023-02-03T06:06:16.022Z,101289.72
2023-02-03T06:09:17.396Z,101277.56
2023-02-03T06:12:18.849Z,101264.34
2023-02-03T06:15:20.428Z,101275.38
2023-02-03T06:18:22.008Z,101278.78
2023-02-03T06:21:23.525Z,101272.50
2023-02-03T06:24:24.956Z,101272.78
2023-02-03T06:27:26.557Z,101284.53
2023-02-03T06:30:28.305Z,101281.69
2023-02-03T06:33:30.204Z,101279.47
2023-02-03T06:36:31.674Z,101284.19
2023-02-03T06:39:33.183Z,101275.13
2023-02-03T06:42:34.830Z,101263.56
2023-02-03T06:45:36.307Z,101259.81
2023-02-03T06:48:37.703Z,101246.31
2023-02-03T06:51:39.341Z,101237.47
2023-02-03T06:54:41.148Z,101230.56
2023-02-03T06:57:44.506Z,101241.28
2023-02-03T07:00:45.901Z,101227.97
2023-02-03T07:03:47.513Z,101240.31
2023-02-03T07:06:49.096Z,101226.13
2023-02-03T07:09:50.485Z,101231.91
2023-02-03T07:12:51.962Z,101242.41
2023-02-03T07:15:53.422Z,101246.75
2023-02-03T07:18:54.930Z,101253.44
2023-02-03T07:21:56.457Z,101257.56
2023-02-03T07:24:57.855Z,101266.44
2023-02-03T07:27:59.309Z,101263.91
2023-02-03T07:31:01.171Z,101259.38
2023-02-03T07:34:02.814Z,101247.53
2023-02-03T07:37:04.321Z,101246.56
2023-02-03T07:40:05.914Z,101246.97
2023-02-03T07:43:07.367Z,101245.06
2023-02-03T07:46:08.951Z,101245.47
2023-02-03T07:49:11.557Z,101239.59
2023-02-03T07:52:12.978Z,101257.63
2023-02-03T07:55:14.426Z,101260.59
2023-02-03T07:58:17.013Z,101252.03
2023-02-03T08:01:18.690Z,101241.88
2023-02-03T08:04:20.846Z,101264.97
2023-02-03T08:07:22.259Z,101274.09
2023-02-03T08:10:23.919Z,101277.88
2023-02-03T08:13:25.568Z,101286.41
2023-02-03T08:16:27.014Z,101274.63
2023-02-03T08:19:28.508Z,101277.19
2023-02-03T08:22:29.996Z,101291.88
2023-02-03T08:25:31.562Z,101295.31
2023-02-03T08:28:33.002Z,101287.94
2023-02-03T08:31:34.798Z,101297.84
2023-02-03T08:34:36.485Z,101313.50
2023-02-03T08:37:38.097Z,101326.94
2023-02-03T08:40:39.494Z,101322.78
2023-02-03T08:43:41.457Z,101319.88
2023-02-03T08:46:44.100Z,101313.34
2023-02-03T08:49:45.805Z,101322.66
2023-02-03T08:52:47.282Z,101324.78
2023-02-03T08:55:48.823Z,101344.69
2023-02-03T08:58:50.292Z,101351.41
2023-02-03T09:01:52.639Z,101350.34
2023-02-03T09:04:54.077Z,101360.34
2023-02-03T09:07:55.480Z,101367.81
2023-02-03T09:10:57.026Z,101360.00
2023-02-03T09:13:58.415Z,101365.09
2023-02-03T09:17:03.156Z,101351.38
2023-02-03T09:20:05.182Z,101358.16
2023-02-03T09:23:06.697Z,101349.41
2023-02-03T09:26:11.089Z,101356.78
2023-02-03T09:29:12.714Z,101344.91
2023-02-03T09:32:15.483Z,101334.19
2023-02-03T09:35:17.383Z,101323.00
2023-02-03T09:38:19.050Z,101319.16
2023-02-03T09:41:44.134Z,101321.94
2023-02-03T09:44:54.631Z,101321.00
2023-02-03T09:48:04.535Z,101318.81
2023-02-03T09:51:11.000Z,101331.91
2023-02-03T09:54:21.338Z,101332.56
2023-02-03T09:57:29.929Z,101322.75
2023-02-03T10:00:58.060Z,101328.09
2023-02-03T10:04:07.059Z,101324.19
2023-02-03T10:07:25.154Z,101333.22
2023-02-03T10:10:39.195Z,101329.97
2023-02-03T10:14:06.938Z,101314.59
2023-02-03T10:17:23.209Z,101327.34
2023-02-03T10:20:38.633Z,101330.72
2023-02-03T10:23:42.430Z,101318.22
2023-02-03T10:26:43.891Z,101305.06
2023-02-03T10:29:54.291Z,101303.97
2023-02-03T10:33:17.664Z,101311.75
2023-02-03T10:36:40.327Z,101303.94
2023-02-03T10:39:41.616Z,101305.31
2023-02-03T10:43:05.629Z,101312.38
2023-02-03T10:46:07.207Z,101325.16
2023-02-03T10:49:10.761Z,101320.34
2023-02-03T10:52:34.532Z,101325.16
2023-02-03T10:55:35.994Z,101311.22
2023-02-03T10:58:39.289Z,101296.75
2023-02-03T11:01:47.118Z,101283.38
2023-02-03T11:04:48.570Z,101285.44
2023-02-03T11:07:50.561Z,101283.66
2023-02-03T11:11:02.775Z,101285.31
2023-02-03T11:14:04.128Z,101294.84
2023-02-03T11:17:09.087Z,101289.34
2023-02-03T11:20:17.395Z,101287.81
2023-02-03T11:23:23.464Z,101280.47
2023-02-03T11:26:28.895Z,101278.38
2023-02-03T11:29:34.194Z,101263.97
2023-02-03T11:32:38.223Z,101258.38
2023-02-03T11:35:40.486Z,101252.97
2023-02-03T11:38:43.572Z,101248.81
2023-02-03T11:41:47.123Z,101237.88
2023-02-03T11:44:48.497Z,101245.38
2023-02-03T11:47:53.883Z,101234.53
2023-02-03T11:51:20.688Z,101241.16
2023-02-03T11:54:47.620Z,101231.41
2023-02-03T11:58:00.199Z,101245.38
2023-02-03T12:01:20.615Z,101239.00
2023-02-03T12:04:38.892Z,101241.66
2023-02-03T12:07:58.410Z,101230.63
2023-02-03T12:11:09.757Z,101237.34
2023-02-03T12:14:54.647Z,101229.63
2023-02-03T12:18:11.185Z,101230.25
2023-02-03T12:21:31.915Z,101229.22
2023-02-03T12:24:39.302Z,101228.25
2023-02-03T12:28:08.877Z,101228.06
2023-02-03T12:31:13.483Z,101231.22
2023-02-03T12:34:33.070Z,101219.97
2023-02-03T12:37:42.289Z,101222.50
2023-02-03T12:40:55.213Z,101218.53
2023-02-03T12:44:05.338Z,101210.88
2023-02-03T12:47:31.929Z,101215.53
2023-02-03T12:50:45.975Z,101218.47
2023-02-03T12:53:55.146Z,101213.22
2023-02-03T12:57:03.868Z,101211.25
2023-02-03T13:00:39.396Z,101203.00
2023-02-03T13:03:48.541Z,101208.13
2023-02-03T13:07:33.404Z,101208.72
2023-02-03T13:10:55.128Z,101197.09
2023-02-03T13:14:03.825Z,101199.16
2023-02-03T13:17:17.917Z,101198.78
2023-02-03T13:20:22.391Z,101198.34
2023-02-03T13:23:25.301Z,101202.81
2023-02-03T13:26:48.598Z,101203.56
2023-02-03T13:30:14.932Z,101201.28
2023-02-03T13:33:39.563Z,101204.84
2023-02-03T13:36:59.235Z,101189.41
2023-02-03T13:40:10.809Z,101190.31
2023-02-03T13:43:35.744Z,101196.63
2023-02-03T13:46:40.356Z,101195.03
2023-02-03T13:49:47.601Z,101190.06
2023-02-03T13:53:00.129Z,101164.91
2023-02-03T13:56:03.599Z,101148.72
2023-02-03T13:59:13.915Z,101158.94
2023-02-03T14:02:21.414Z,101150.84
2023-02-03T14:05:49.451Z,101158.28
2023-02-03T14:08:52.407Z,101167.44
2023-02-03T14:12:16.662Z,101179.03
2023-02-03T14:15:18.293Z,101179.66
2023-02-03T14:18:44.978Z,101185.22
2023-02-03T14:22:02.741Z,101174.31
2023-02-03T14:25:06.794Z,101169.72
2023-02-03T14:28:20.038Z,101176.00
2023-02-03T14:31:26.318Z,101163.69
2023-02-03T14:34:35.100Z,101156.84
2023-02-03T14:37:36.507Z,101157.63
2023-02-03T14:40:55.433Z,101174.13
2023-02-03T14:44:15.633Z,101175.69
2023-02-03T14:47:32.558Z,101191.38
2023-02-03T14:50:50.980Z,101199.72
2023-02-03T14:54:07.539Z,101185.88
2023-02-03T14:57:36.915Z,101184.50
2023-02-03T15:00:38.440Z,101184.00
2023-02-03T15:03:42.217Z,101193.28
2023-02-03T15:06:48.311Z,101180.56
2023-02-03T15:09:51.490Z,101191.66
2023-02-03T15:12:55.293Z,101197.41
2023-02-03T15:16:00.072Z,101212.47
2023-02-03T15:19:08.056Z,101194.94
2023-02-03T15:22:25.265Z,101190.47
2023-02-03T15:25:29.522Z,101206.25
2023-02-03T15:28:31.283Z,101215.03
2023-02-03T15:31:45.844Z,101220.66
2023-02-03T15:34:49.507Z,101219.44
2023-02-03T15:37:56.064Z,101217.81
2023-02-03T15:40:58.893Z,101222.06
2023-02-03T15:44:33.149Z,101215.81
2023-02-03T15:47:40.487Z,101205.59
2023-02-03T15:50:48.939Z,101200.41
2023-02-03T15:53:56.977Z,101200.84
2023-02-03T15:57:01.822Z,101206.59
2023-02-03T16:00:24.804Z,101197.50
2023-02-03T16:03:35.282Z,101197.31
2023-02-03T16:06:40.357Z,101203.13
2023-02-03T16:09:41.860Z,101212.56
2023-02-03T16:12:43.627Z,101214.81
2023-02-03T16:15:56.184Z,101209.34
2023-02-03T16:18:58.884Z,101213.91
2023-02-03T16:22:00.391Z,101212.38
2023-02-03T16:25:23.597Z,101214.72
2023-02-03T16:28:44.693Z,101204.84
2023-02-03T16:32:05.202Z,101225.22
2023-02-03T16:35:28.950Z,101228.44
2023-02-03T16:38:49.303Z,101235.69
2023-02-03T16:42:09.621Z,101231.53
2023-02-03T16:45:34.285Z,101240.44
2023-02-03T16:48:54.571Z,101243.34
2023-02-03T16:51:56.167Z,101232.00
2023-02-03T16:54:58.149Z,101224.50
2023-02-03T16:57:59.736Z,101226.66
2023-02-03T17:01:03.757Z,101222.91
2023-02-03T17:04:05.381Z,101221.03
2023-02-03T17:07:06.827Z,101219.44
2023-02-03T17:10:09.498Z,101214.16
2023-02-03T17:13:12.088Z,101214.38
2023-02-03T17:16:22.871Z,101229.41
2023-02-03T17:19:24.447Z,101238.59
2023-02-03T17:22:27.065Z,101240.13
2023-02-03T17:25:29.129Z,101240.28
2023-02-03T17:28:31.051Z,101246.44
2023-02-03T17:31:32.868Z,101244.00
2023-02-03T17:34:34.899Z,101244.88
2023-02-03T17:37:36.443Z,101238.09
2023-02-03T17:54:04.905Z,101224.38
2023-02-03T17:57:06.544Z,101228.91
2023-02-03T18:00:09.462Z,101233.66
2023-02-03T18:03:16.511Z,101227.88
2023-02-03T18:06:20.683Z,101235.91
2023-02-03T18:09:23.353Z,101242.56
2023-02-03T18:12:24.857Z,101239.16
2023-02-03T18:15:26.233Z,101246.75
2023-02-03T18:18:28.937Z,101250.91
2023-02-03T18:21:32.232Z,101250.16
2023-02-03T18:24:33.734Z,101246.97
2023-02-03T18:27:35.393Z,101240.75
2023-02-03T18:30:36.918Z,101245.28
2023-02-03T18:33:38.644Z,101252.72
2023-02-03T18:39:47.134Z,101255.75
2023-02-03T18:42:48.984Z,101275.47
2023-02-03T18:45:50.770Z,101273.81
2023-02-03T18:48:53.177Z,101266.38
2023-02-03T18:51:54.683Z,101269.16
2023-02-03T18:54:56.369Z,101276.28
2023-02-03T18:57:58.834Z,101266.53
2023-02-03T19:01:00.609Z,101258.84
2023-02-03T19:04:03.268Z,101257.16
2023-02-03T19:07:04.747Z,101257.16
2023-02-03T19:10:06.481Z,101259.09
2023-02-03T19:13:07.918Z,101252.09
2023-02-03T19:16:12.934Z,101253.03
2023-02-03T19:19:14.836Z,101261.91
2023-02-03T19:22:16.240Z,101266.84
2023-02-03T19:25:17.650Z,101269.16
2023-02-03T19:28:30.008Z,101275.94
2023-02-03T19:31:32.393Z,101281.81
2023-02-03T19:34:33.962Z,101268.03
2023-02-03T19:37:35.482Z,101266.44
2023-02-03T19:40:36.901Z,101266.44
2023-02-03T19:43:38.332Z,101269.88
2023-02-03T19:46:41.984Z,101277.31
2023-02-03T19:49:43.586Z,101276.28
2023-02-03T19:52:45.061Z,101275.97
2023-02-03T19:55:46.639Z,101286.41
2023-02-03T19:58:51.939Z,101304.56
2023-02-03T20:01:57.975Z,101291.34
2023-02-03T20:05:01.041Z,101285.09
2023-02-03T20:08:03.338Z,101285.56
2023-02-03T20:11:05.127Z,101286.31
2023-02-03T20:14:06.648Z,101294.31
2023-02-03T20:17:08.219Z,101288.53
2023-02-03T20:20:10.030Z,101291.06
2023-02-03T20:23:11.472Z,101301.94
2023-02-03T20:26:14.218Z,101302.44
2023-02-03T20:29:15.752Z,101300.88
2023-02-03T20:32:17.211Z,101305.97
2023-02-03T20:35:19.749Z,101304.66
2023-02-03T20:38:21.268Z,101306.16
2023-02-03T20:41:22.727Z,101310.34
2023-02-03T20:44:24.232Z,101321.97
2023-02-03T20:47:26.182Z,101323.94
2023-02-03T20:50:40.447Z,101327.28
2023-02-03T20:53:44.257Z,101339.50
2023-02-03T20:56:45.727Z,101330.72
2023-02-03T20:59:47.561Z,101333.22
2023-02-03T21:03:08.457Z,101329.13
2023-02-03T21:06:18.559Z,101335.94
2023-02-03T21:09:22.720Z,101323.00
2023-02-03T21:12:25.402Z,101329.41
2023-02-03T21:15:29.520Z,101325.63
2023-02-03T21:18:39.057Z,101324.81
2023-02-03T21:21:42.480Z,101324.47
2023-02-03T21:25:23.433Z,101336.03
2023-02-03T21:28:27.779Z,101337.22
2023-02-03T21:31:34.684Z,101337.09
2023-02-03T21:34:37.515Z,101336.28
2023-02-03T21:37:41.257Z,101343.97
2023-02-03T21:40:42.711Z,101339.13
2023-02-03T21:43:46.938Z,101346.09
2023-02-03T21:46:48.403Z,101334.84
2023-02-03T21:49:49.856Z,101332.09
2023-02-03T21:52:51.307Z,101341.16
2023-02-03T21:55:52.993Z,101335.78
2023-02-03T21:58:58.740Z,101341.25
2023-02-03T22:02:00.691Z,101340.03
2023-02-03T22:05:03.701Z,101344.69
2023-02-03T22:08:19.703Z,101347.00
2023-02-03T22:11:23.674Z,101343.94
2023-02-03T22:14:25.063Z,101351.31
2023-02-03T22:17:26.495Z,101334.66
2023-02-03T22:20:28.123Z,101335.63
2023-02-03T22:23:29.725Z,101336.72
2023-02-03T22:26:31.190Z,101342.44
2023-02-03T22:29:32.653Z,101343.78
2023-02-03T22:32:34.136Z,101339.53
2023-02-03T22:35:35.738Z,101339.69
2023-02-03T22:38:38.536Z,101340.78
2023-02-03T22:41:39.951Z,101344.13
2023-02-03T22:44:41.372Z,101345.75
2023-02-03T22:47:42.766Z,101348.25
2023-02-03T22:50:44.150Z,101351.44
2023-02-03T22:53:45.674Z,101354.19
2023-02-03T22:56:47.105Z,101349.00
2023-02-03T22:59:48.502Z,101351.38
2023-02-03T23:02:50.564Z,101361.25
2023-02-03T23:05:52.026Z,101354.53
2023-02-03T23:08:55.312Z,101357.41
2023-02-03T23:11:56.787Z,101356.41
2023-02-03T23:14:58.335Z,101363.25
2023-02-03T23:17:59.826Z,101360.41
2023-02-03T23:21:01.245Z,101367.31
2023-02-03T23:24:02.822Z,101367.97
2023-02-03T23:27:04.279Z,101349.19
2023-02-03T23:30:06.409Z,101347.81
2023-02-03T23:33:08.087Z,101346.81
2023-02-03T23:36:09.590Z,101341.03
2023-02-03T23:39:10.968Z,101342.53
2023-02-03T23:42:12.456Z,101347.44
2023-02-03T23:45:14.033Z,101350.00
2023-02-03T23:48:17.654Z,101350.06
2023-02-03T23:51:19.066Z,101347.59
2023-02-03T23:54:20.475Z,101350.41
2023-02-03T23:57:21.877Z,101338.22
